createdAt,value
2019-02-16T00:01:12.292Z,99928.36
2019-02-16T00:03:46.149Z,99921.75
2019-02-16T00:06:19.695Z,99918.88
2019-02-16T00:08:53.638Z,99923.16
2019-02-16T00:11:27.501Z,99930.83
2019-02-16T00:14:01.489Z,99934.31
2019-02-16T00:16:35.359Z,99937.03
2019-02-16T00:19:08.967Z,99946.43
2019-02-16T00:21:42.837Z,99947.89
2019-02-16T00:24:16.275Z,99955.05
2019-02-16T00:26:50.064Z,99952.51
2019-02-16T00:29:23.747Z,99965.89
2019-02-16T00:31:57.585Z,99964.48
2019-02-16T00:34:31.144Z,99962.70
2019-02-16T00:37:04.781Z,99957.58
2019-02-16T00:39:38.584Z,99950.17
2019-02-16T00:42:12.298Z,99946.89
2019-02-16T00:44:46.261Z,99945.36
2019-02-16T00:47:19.962Z,99953.75
2019-02-16T00:49:53.728Z,99946.19
2019-02-16T00:52:27.269Z,99942.98
2019-02-16T00:55:46.489Z,99935.73
2019-02-16T00:57:43.536Z,99929.84
2019-02-16T01:00:17.118Z,99935.92
2019-02-16T01:02:50.601Z,99930.94
2019-02-16T01:05:24.285Z,99928.27
2019-02-16T01:07:59.241Z,99926.80
2019-02-16T01:10:34.784Z,99928.78
2019-02-16T01:13:08.535Z,99927.91
2019-02-16T01:15:43.322Z,99936.30
2019-02-16T01:18:17.138Z,99938.92
2019-02-16T01:20:50.935Z,99937.91
2019-02-16T01:23:25.086Z,99936.12
2019-02-16T01:25:58.816Z,99936.12
2019-02-16T01:28:35.239Z,99935.59
2019-02-16T01:31:10.443Z,99936.19
2019-02-16T01:33:45.596Z,99936.12
2019-02-16T01:36:20.529Z,99934.28
2019-02-16T01:38:54.187Z,99928.17
2019-02-16T01:41:27.954Z,99919.80
2019-02-16T01:44:01.838Z,99918.91
2019-02-16T01:46:35.433Z,99919.80
2019-02-16T01:49:09.162Z,99924.34
2019-02-16T01:51:42.944Z,99923.70
2019-02-16T01:54:16.591Z,99908.63
2019-02-16T01:56:50.483Z,99912.50
2019-02-16T01:59:24.141Z,99905.89
2019-02-16T02:01:57.998Z,99900.78
2019-02-16T02:04:31.946Z,99903.63
2019-02-16T02:07:06.209Z,99902.00
2019-02-16T02:09:40.614Z,99898.69
2019-02-16T02:12:15.656Z,99894.52
2019-02-16T02:15:05.022Z,99891.92
2019-02-16T02:17:39.232Z,99898.59
2019-02-16T02:20:13.730Z,99890.14
2019-02-16T02:22:48.044Z,99893.47
2019-02-16T02:25:23.929Z,99889.06
2019-02-16T02:27:58.025Z,99883.38
2019-02-16T02:30:33.299Z,99892.11
2019-02-16T02:33:07.395Z,99890.61
2019-02-16T02:35:41.449Z,99888.01
2019-02-16T02:38:16.477Z,99887.17
2019-02-16T02:40:50.491Z,99888.67
2019-02-16T02:43:24.788Z,99883.34
2019-02-16T02:45:59.176Z,99883.84
2019-02-16T02:48:33.100Z,99881.02
2019-02-16T02:51:07.594Z,99875.80
2019-02-16T02:53:41.773Z,99869.97
2019-02-16T02:56:15.764Z,99871.63
2019-02-16T02:58:51.267Z,99874.30
2019-02-16T03:01:26.893Z,99867.98
2019-02-16T03:04:01.080Z,99882.01
2019-02-16T03:06:35.199Z,99872.47
2019-02-16T03:09:09.549Z,99867.17
2019-02-16T03:11:43.600Z,99857.69
2019-02-16T03:14:23.987Z,99859.34
2019-02-16T03:16:55.866Z,99854.87
2019-02-16T03:19:30.374Z,99853.38
2019-02-16T03:22:04.899Z,99850.73
2019-02-16T03:24:38.981Z,99858.41
2019-02-16T03:27:30.933Z,99860.48
2019-02-16T03:30:29.207Z,99853.68
2019-02-16T03:33:08.959Z,99852.90
2019-02-16T03:36:08.613Z,99852.19
2019-02-16T03:38:50.651Z,99850.00
2019-02-16T03:41:25.107Z,99842.77
2019-02-16T03:43:59.556Z,99843.50
2019-02-16T03:46:33.963Z,99828.72
2019-02-16T03:49:08.359Z,99827.92
2019-02-16T03:51:45.895Z,99827.41
2019-02-16T03:54:22.507Z,99828.33
2019-02-16T03:56:57.272Z,99826.06
2019-02-16T03:59:31.494Z,99824.59
2019-02-16T04:02:05.795Z,99820.56
2019-02-16T04:04:40.133Z,99817.59
2019-02-16T04:07:14.532Z,99812.20
2019-02-16T04:09:48.855Z,99803.14
2019-02-16T04:12:23.125Z,99802.19
2019-02-16T04:14:57.407Z,99797.67
2019-02-16T04:17:31.728Z,99789.70
2019-02-16T04:20:06.912Z,99778.45
2019-02-16T04:22:43.397Z,99778.01
2019-02-16T04:25:19.251Z,99778.01
2019-02-16T04:27:53.644Z,99778.83
2019-02-16T04:30:29.708Z,99782.38
2019-02-16T04:33:04.414Z,99779.92
2019-02-16T04:35:38.773Z,99776.30
2019-02-16T04:38:13.717Z,99768.14
2019-02-16T04:40:48.558Z,99765.75
2019-02-16T04:43:22.445Z,99760.78
2019-02-16T04:45:57.059Z,99758.97
2019-02-16T04:48:31.937Z,99749.32
2019-02-16T04:51:06.026Z,99742.13
2019-02-16T04:53:40.918Z,99741.30
2019-02-16T04:56:15.400Z,99753.69
2019-02-16T04:58:51.386Z,99750.12
2019-02-16T05:01:25.879Z,99748.61
2019-02-16T05:04:00.220Z,99747.01
2019-02-16T05:06:34.686Z,99748.84
2019-02-16T05:09:09.158Z,99744.97
2019-02-16T05:11:43.795Z,99743.91
2019-02-16T05:14:18.254Z,99742.50
2019-02-16T05:16:52.717Z,99733.41
2019-02-16T05:19:28.667Z,99731.26
2019-02-16T05:22:04.908Z,99736.22
2019-02-16T05:24:39.375Z,99727.80
2019-02-16T05:27:15.386Z,99728.09
2019-02-16T05:29:49.753Z,99732.90
2019-02-16T05:32:25.962Z,99729.48
2019-02-16T05:35:02.520Z,99735.81
2019-02-16T05:37:36.620Z,99731.98
2019-02-16T05:40:12.078Z,99732.06
2019-02-16T05:42:46.401Z,99730.41
2019-02-16T05:45:20.774Z,99735.25
2019-02-16T05:48:00.166Z,99733.91
2019-02-16T05:50:34.548Z,99738.44
2019-02-16T05:53:11.736Z,99741.02
2019-02-16T05:55:46.443Z,99729.78
2019-02-16T05:58:21.257Z,99727.11
2019-02-16T06:00:55.589Z,99722.61
2019-02-16T06:03:30.438Z,99731.51
2019-02-16T06:06:04.917Z,99727.38
2019-02-16T06:08:39.336Z,99721.39
2019-02-16T06:11:17.437Z,99718.64
2019-02-16T06:13:53.596Z,99710.08
2019-02-16T06:16:29.168Z,99704.34
2019-02-16T06:19:05.045Z,99702.52
2019-02-16T06:21:40.367Z,99698.31
2019-02-16T06:24:16.941Z,99692.38
2019-02-16T06:26:51.872Z,99691.70
2019-02-16T06:29:26.245Z,99699.64
2019-02-16T06:32:00.812Z,99696.06
2019-02-16T06:34:37.540Z,99698.52
2019-02-16T06:37:12.444Z,99694.72
2019-02-16T06:39:47.182Z,99699.56
2019-02-16T06:42:21.741Z,99693.91
2019-02-16T06:44:56.667Z,99700.27
2019-02-16T06:47:31.669Z,99704.78
2019-02-16T06:50:06.558Z,99698.25
2019-02-16T06:52:41.098Z,99693.69
2019-02-16T06:55:16.325Z,99695.64
2019-02-16T06:57:50.943Z,99696.33
2019-02-16T07:00:27.825Z,99700.92
2019-02-16T07:03:02.201Z,99702.24
2019-02-16T07:05:36.504Z,99697.44
2019-02-16T07:08:11.304Z,99698.41
2019-02-16T07:10:45.702Z,99695.05
2019-02-16T07:13:20.819Z,99705.05
2019-02-16T07:15:54.836Z,99698.32
2019-02-16T07:18:29.262Z,99697.97
2019-02-16T07:21:03.561Z,99692.56
2019-02-16T07:23:37.753Z,99696.24
2019-02-16T07:26:13.962Z,99699.56
2019-02-16T07:28:48.260Z,99696.16
2019-02-16T07:31:23.894Z,99694.25
2019-02-16T07:33:58.674Z,99705.83
2019-02-16T07:36:33.785Z,99699.51
2019-02-16T07:39:09.443Z,99704.13
2019-02-16T07:41:44.213Z,99694.89
2019-02-16T07:44:19.516Z,99696.32
2019-02-16T07:46:53.488Z,99695.05
2019-02-16T07:49:28.439Z,99698.97
2019-02-16T07:52:04.897Z,99700.34
2019-02-16T07:54:39.961Z,99691.91
2019-02-16T07:57:14.959Z,99698.59
2019-02-16T07:59:49.494Z,99685.61
2019-02-16T08:02:24.432Z,99683.95
2019-02-16T08:04:59.288Z,99691.48
2019-02-16T08:07:33.738Z,99679.50
2019-02-16T08:10:09.999Z,99681.93
2019-02-16T08:12:47.579Z,99673.41
2019-02-16T08:15:23.398Z,99673.39
2019-02-16T08:17:59.217Z,99662.91
2019-02-16T08:20:33.627Z,99664.70
2019-02-16T08:23:08.088Z,99668.32
2019-02-16T08:25:44.028Z,99669.23
2019-02-16T08:28:20.871Z,99670.97
2019-02-16T08:30:57.356Z,99662.46
2019-02-16T08:33:32.337Z,99663.84
2019-02-16T08:36:07.066Z,99661.84
2019-02-16T08:38:43.187Z,99660.00
2019-02-16T08:41:17.587Z,99661.62
2019-02-16T08:43:52.804Z,99666.53
2019-02-16T08:46:28.002Z,99662.76
2019-02-16T08:49:03.056Z,99673.03
2019-02-16T08:51:37.429Z,99666.41
2019-02-16T08:54:11.544Z,99666.42
2019-02-16T08:56:48.024Z,99659.55
2019-02-16T08:59:26.049Z,99651.86
2019-02-16T09:02:02.409Z,99648.58
2019-02-16T09:04:36.638Z,99643.52
2019-02-16T09:07:11.710Z,99637.30
2019-02-16T09:09:46.119Z,99634.66
2019-02-16T09:12:24.757Z,99632.14
2019-02-16T09:15:03.220Z,99632.16
2019-02-16T09:17:42.043Z,99625.14
2019-02-16T09:20:17.668Z,99617.64
2019-02-16T09:22:53.104Z,99620.09
2019-02-16T09:25:28.942Z,99628.20
2019-02-16T09:28:05.494Z,99627.05
2019-02-16T09:30:42.661Z,99625.94
2019-02-16T09:33:18.654Z,99628.82
2019-02-16T09:35:54.570Z,99628.49
2019-02-16T09:38:33.621Z,99631.55
2019-02-16T09:41:09.684Z,99637.03
2019-02-16T09:43:45.592Z,99632.05
2019-02-16T09:46:21.588Z,99634.17
2019-02-16T09:48:58.505Z,99638.88
2019-02-16T09:51:36.691Z,99642.21
2019-02-16T09:54:12.180Z,99647.38
2019-02-16T09:56:47.300Z,99644.44
2019-02-16T09:59:24.688Z,99652.44
2019-02-16T10:02:02.714Z,99648.88
2019-02-16T10:04:38.171Z,99644.26
2019-02-16T10:07:15.970Z,99654.54
2019-02-16T10:09:51.501Z,99655.88
2019-02-16T10:12:27.237Z,99662.92
2019-02-16T10:15:21.898Z,99660.47
2019-02-16T10:17:58.139Z,99661.30
2019-02-16T10:20:33.751Z,99668.67
2019-02-16T10:23:09.323Z,99668.30
2019-02-16T10:25:48.876Z,99665.22
2019-02-16T10:28:23.726Z,99665.68
2019-02-16T10:30:58.186Z,99669.72
2019-02-16T10:33:33.676Z,99666.38
2019-02-16T10:36:08.959Z,99667.72
2019-02-16T10:38:44.427Z,99662.93
2019-02-16T10:41:19.446Z,99656.09
2019-02-16T10:43:54.270Z,99653.81
2019-02-16T10:46:31.950Z,99655.89
2019-02-16T10:49:09.866Z,99660.56
2019-02-16T10:51:48.057Z,99660.23
2019-02-16T10:54:28.122Z,99653.27
2019-02-16T10:56:59.526Z,99652.98
2019-02-16T10:59:34.066Z,99645.49
2019-02-16T11:02:08.583Z,99638.99
2019-02-16T11:04:47.327Z,99635.05
2019-02-16T11:07:21.781Z,99637.11
2019-02-16T11:10:09.304Z,99632.12
2019-02-16T11:12:44.518Z,99639.58
2019-02-16T11:15:19.924Z,99631.24
2019-02-16T11:17:57.589Z,99637.70
2019-02-16T11:20:33.150Z,99638.23
2019-02-16T11:23:08.207Z,99652.22
2019-02-16T11:25:46.221Z,99646.56
2019-02-16T11:28:24.433Z,99640.95
2019-02-16T11:31:00.050Z,99642.64
2019-02-16T11:33:35.156Z,99635.72
2019-02-16T11:36:11.115Z,99635.22
2019-02-16T11:38:46.444Z,99631.02
2019-02-16T11:41:24.023Z,99630.95
2019-02-16T11:44:01.354Z,99622.26
2019-02-16T11:46:36.699Z,99625.66
2019-02-16T11:49:12.281Z,99623.56
2019-02-16T11:51:50.770Z,99620.53
2019-02-16T11:54:27.216Z,99617.30
2019-02-16T11:57:03.075Z,99624.30
2019-02-16T11:59:39.324Z,99618.38
2019-02-16T12:02:16.399Z,99617.41
2019-02-16T12:04:51.712Z,99624.06
2019-02-16T12:07:29.704Z,99613.78
2019-02-16T12:10:05.494Z,99622.56
2019-02-16T12:12:40.766Z,99614.31
2019-02-16T12:15:15.692Z,99611.72
2019-02-16T12:17:53.056Z,99611.42
2019-02-16T12:20:33.687Z,99609.39
2019-02-16T12:23:13.261Z,99614.12
2019-02-16T12:25:48.191Z,99619.77
2019-02-16T12:28:29.106Z,99616.81
2019-02-16T12:31:01.770Z,99621.47
2019-02-16T12:33:36.905Z,99619.80
2019-02-16T12:36:14.667Z,99623.50
2019-02-16T12:38:49.788Z,99623.80
2019-02-16T12:41:25.177Z,99628.98
2019-02-16T12:44:00.800Z,99627.21
2019-02-16T12:46:39.601Z,99625.33
2019-02-16T12:49:15.060Z,99622.53
2019-02-16T12:51:52.793Z,99634.31
2019-02-16T12:54:28.440Z,99626.33
2019-02-16T12:57:04.456Z,99626.49
2019-02-16T12:59:43.968Z,99620.17
2019-02-16T13:02:19.755Z,99619.20
2019-02-16T13:04:55.571Z,99615.52
2019-02-16T13:07:31.018Z,99614.55
2019-02-16T13:10:13.768Z,99612.66
2019-02-16T13:12:49.367Z,99614.84
2019-02-16T13:15:27.204Z,99612.52
2019-02-16T13:18:02.279Z,99613.84
2019-02-16T13:20:40.005Z,99615.14
2019-02-16T13:23:16.088Z,99609.22
2019-02-16T13:25:52.387Z,99604.59
2019-02-16T13:28:30.826Z,99606.06
2019-02-16T13:31:08.872Z,99605.59
2019-02-16T13:33:47.457Z,99605.73
2019-02-16T13:36:25.779Z,99604.28
2019-02-16T13:39:02.011Z,99600.48
2019-02-16T13:41:44.799Z,99600.32
2019-02-16T13:44:21.632Z,99594.66
2019-02-16T13:46:57.560Z,99592.84
2019-02-16T13:49:36.382Z,99597.63
2019-02-16T13:52:12.444Z,99598.66
2019-02-16T13:54:48.420Z,99592.48
2019-02-16T13:57:23.991Z,99584.16
2019-02-16T14:00:01.600Z,99589.84
2019-02-16T14:02:36.466Z,99593.36
2019-02-16T14:05:11.628Z,99589.06
2019-02-16T14:07:46.879Z,99584.21
2019-02-16T14:10:22.025Z,99581.91
2019-02-16T14:12:56.923Z,99581.69
2019-02-16T14:15:38.894Z,99572.91
2019-02-16T14:18:14.382Z,99566.64
2019-02-16T14:20:54.181Z,99578.94
2019-02-16T14:23:29.606Z,99574.27
2019-02-16T14:26:04.689Z,99574.09
2019-02-16T14:28:40.278Z,99571.63
2019-02-16T14:31:15.647Z,99567.28
2019-02-16T14:33:50.701Z,99557.61
2019-02-16T14:36:25.684Z,99560.24
2019-02-16T14:39:01.924Z,99555.59
2019-02-16T14:41:36.527Z,99559.25
2019-02-16T14:44:11.621Z,99566.92
2019-02-16T14:46:52.044Z,99573.91
2019-02-16T14:49:32.931Z,99561.94
2019-02-16T14:52:07.682Z,99568.59
2019-02-16T14:54:45.598Z,99574.73
2019-02-16T14:57:23.081Z,99567.86
2019-02-16T14:59:59.093Z,99558.41
2019-02-16T15:02:34.286Z,99560.41
2019-02-16T15:05:10.431Z,99563.56
2019-02-16T15:07:45.778Z,99557.09
2019-02-16T15:10:21.285Z,99558.75
2019-02-16T15:12:56.413Z,99558.25
2019-02-16T15:15:32.150Z,99542.67
2019-02-16T15:18:07.285Z,99552.48
2019-02-16T15:20:45.895Z,99553.79
2019-02-16T15:23:21.378Z,99549.16
2019-02-16T15:26:01.168Z,99552.48
2019-02-16T15:28:34.664Z,99546.86
2019-02-16T15:31:12.816Z,99546.03
2019-02-16T15:33:53.155Z,99541.04
2019-02-16T15:36:24.746Z,99542.04
2019-02-16T15:39:09.368Z,99536.86
2019-02-16T15:41:44.793Z,99536.22
2019-02-16T15:44:20.092Z,99540.21
2019-02-16T15:46:55.487Z,99534.56
2019-02-16T15:49:32.132Z,99535.05
2019-02-16T15:52:13.852Z,99536.58
2019-02-16T15:54:54.003Z,99537.85
2019-02-16T15:57:31.306Z,99539.73
2019-02-16T16:00:09.499Z,99536.44
2019-02-16T16:02:44.478Z,99540.38
2019-02-16T16:05:30.105Z,99541.56
2019-02-16T16:08:07.512Z,99536.08
2019-02-16T16:10:42.990Z,99536.23
2019-02-16T16:13:18.540Z,99547.92
2019-02-16T16:15:53.769Z,99550.92
2019-02-16T16:18:29.179Z,99549.23
2019-02-16T16:21:06.150Z,99547.56
2019-02-16T16:23:41.612Z,99545.28
2019-02-16T16:26:19.822Z,99547.11
2019-02-16T16:29:00.418Z,99545.62
2019-02-16T16:31:31.033Z,99539.25
2019-02-16T16:34:09.183Z,99534.63
2019-02-16T16:36:42.553Z,99533.48
2019-02-16T16:39:17.852Z,99522.03
2019-02-16T16:41:55.357Z,99518.91
2019-02-16T16:44:37.049Z,99520.55
2019-02-16T16:47:20.206Z,99523.22
2019-02-16T16:49:53.400Z,99527.34
2019-02-16T16:52:33.284Z,99530.54
2019-02-16T16:55:11.222Z,99525.36
2019-02-16T16:57:44.224Z,99531.84
2019-02-16T17:00:21.252Z,99528.52
2019-02-16T17:02:55.244Z,99532.17
2019-02-16T17:05:32.140Z,99530.22
2019-02-16T17:08:11.581Z,99529.21
2019-02-16T17:10:46.194Z,99526.20
2019-02-16T17:13:20.673Z,99530.39
2019-02-16T17:15:54.943Z,99520.91
2019-02-16T17:18:32.742Z,99530.55
2019-02-16T17:21:07.245Z,99532.70
2019-02-16T17:23:42.037Z,99532.85
2019-02-16T17:26:22.266Z,99534.53
2019-02-16T17:28:56.728Z,99528.72
2019-02-16T17:31:31.386Z,99521.76
2019-02-16T17:34:09.198Z,99525.07
2019-02-16T17:36:42.965Z,99530.38
2019-02-16T17:39:17.648Z,99532.25
2019-02-16T17:41:52.984Z,99527.27
2019-02-16T17:44:27.697Z,99541.70
2019-02-16T17:47:02.147Z,99548.36
2019-02-16T17:49:42.909Z,99542.05
2019-02-16T17:52:15.563Z,99546.03
2019-02-16T17:54:50.381Z,99547.84
2019-02-16T17:57:27.231Z,99554.17
2019-02-16T18:00:01.846Z,99551.53
2019-02-16T18:02:36.738Z,99551.19
2019-02-16T18:05:13.813Z,99545.03
2019-02-16T18:07:48.882Z,99555.33
2019-02-16T18:10:23.431Z,99552.02
2019-02-16T18:12:58.682Z,99548.53
2019-02-16T18:15:34.201Z,99550.85
2019-02-16T18:18:11.331Z,99548.20
2019-02-16T18:20:48.831Z,99552.52
2019-02-16T18:23:23.167Z,99540.08
2019-02-16T18:25:57.424Z,99546.52
2019-02-16T18:28:35.259Z,99545.71
2019-02-16T18:31:07.754Z,99546.88
2019-02-16T18:33:42.321Z,99546.55
2019-02-16T18:36:17.103Z,99543.05
2019-02-16T18:38:51.673Z,99540.38
2019-02-16T18:41:26.178Z,99538.24
2019-02-16T18:44:04.181Z,99543.21
2019-02-16T18:46:35.700Z,99536.27
2019-02-16T18:49:10.822Z,99538.42
2019-02-16T18:51:45.235Z,99535.75
2019-02-16T18:54:19.653Z,99541.05
2019-02-16T18:57:06.021Z,99535.23
2019-02-16T18:59:35.486Z,99543.37
2019-02-16T19:02:09.795Z,99548.19
2019-02-16T19:04:44.207Z,99539.06
2019-02-16T19:07:18.593Z,99547.03
2019-02-16T19:09:53.120Z,99539.56
2019-02-16T19:12:27.617Z,99544.35
2019-02-16T19:15:05.172Z,99545.03
2019-02-16T19:17:39.909Z,99541.54
2019-02-16T19:20:14.426Z,99539.56
2019-02-16T19:22:52.640Z,99546.52
2019-02-16T19:25:26.171Z,99539.05
2019-02-16T19:28:01.365Z,99540.70
2019-02-16T19:30:35.741Z,99534.09
2019-02-16T19:33:10.563Z,99531.27
2019-02-16T19:35:45.196Z,99533.57
2019-02-16T19:38:20.029Z,99534.25
2019-02-16T19:40:54.492Z,99534.74
2019-02-16T19:43:28.885Z,99527.11
2019-02-16T19:46:05.450Z,99530.57
2019-02-16T19:48:39.723Z,99530.92
2019-02-16T19:51:14.100Z,99528.76
2019-02-16T19:53:48.502Z,99530.28
2019-02-16T19:56:23.035Z,99524.59
2019-02-16T19:58:57.539Z,99526.27
2019-02-16T20:01:31.863Z,99532.23
2019-02-16T20:04:06.542Z,99527.43
2019-02-16T20:06:41.045Z,99536.35
2019-02-16T20:09:15.393Z,99542.16
2019-02-16T20:11:49.581Z,99540.67
2019-02-16T20:14:23.923Z,99543.82
2019-02-16T20:16:58.200Z,99551.28
2019-02-16T20:19:38.205Z,99549.62
2019-02-16T20:22:12.685Z,99549.14
2019-02-16T20:24:46.900Z,99546.79
2019-02-16T20:27:21.372Z,99539.98
2019-02-16T20:29:55.792Z,99542.25
2019-02-16T20:32:30.337Z,99548.92
2019-02-16T20:35:04.509Z,99550.06
2019-02-16T20:37:39.426Z,99537.84
2019-02-16T20:40:16.140Z,99542.31
2019-02-16T20:42:50.232Z,99543.33
2019-02-16T20:45:26.447Z,99538.15
2019-02-16T20:48:00.696Z,99540.50
2019-02-16T20:50:35.158Z,99542.78
2019-02-16T20:53:09.306Z,99541.61
2019-02-16T20:55:43.522Z,99540.12
2019-02-16T20:58:17.784Z,99540.28
2019-02-16T21:03:54.892Z,99533.16
2019-02-16T21:06:29.029Z,99534.33
2019-02-16T21:09:03.382Z,99538.95
2019-02-16T21:11:37.933Z,99538.77
2019-02-16T21:14:12.360Z,99542.41
2019-02-16T21:16:46.425Z,99550.39
2019-02-16T21:19:22.313Z,99550.58
2019-02-16T21:21:56.950Z,99544.07
2019-02-16T21:24:31.067Z,99546.38
2019-02-16T21:27:05.009Z,99540.09
2019-02-16T21:29:40.976Z,99542.06
2019-02-16T21:32:16.517Z,99542.59
2019-02-16T21:34:51.887Z,99535.89
2019-02-16T21:37:25.637Z,99544.06
2019-02-16T21:40:01.091Z,99540.59
2019-02-16T21:42:36.144Z,99541.19
2019-02-16T21:45:09.939Z,99545.58
2019-02-16T21:47:43.796Z,99544.56
2019-02-16T21:50:17.586Z,99551.20
2019-02-16T21:52:51.844Z,99546.42
2019-02-16T21:55:25.745Z,99549.22
2019-02-16T21:58:07.788Z,99545.20
2019-02-16T22:00:34.222Z,99546.04
2019-02-16T22:03:07.940Z,99545.55
2019-02-16T22:05:41.198Z,99540.55
2019-02-16T22:08:16.010Z,99538.73
2019-02-16T22:10:49.639Z,99547.03
2019-02-16T22:13:23.382Z,99544.67
2019-02-16T22:15:58.498Z,99548.20
2019-02-16T22:18:32.279Z,99547.17
2019-02-16T22:21:06.292Z,99548.54
2019-02-16T22:23:39.778Z,99547.47
2019-02-16T22:26:13.344Z,99541.88
2019-02-16T22:28:47.284Z,99540.05
2019-02-16T22:31:21.162Z,99546.78
2019-02-16T22:33:54.982Z,99552.13
2019-02-16T22:36:28.531Z,99549.67
2019-02-16T22:39:02.335Z,99552.13
2019-02-16T22:41:36.063Z,99555.58
2019-02-16T22:44:09.679Z,99567.89
2019-02-16T22:46:44.555Z,99559.41
2019-02-16T22:49:19.485Z,99564.41
2019-02-16T22:51:56.858Z,99561.07
2019-02-16T22:54:30.437Z,99570.55
2019-02-16T22:57:04.800Z,99561.49
2019-02-16T22:59:38.424Z,99570.23
2019-02-16T23:02:12.830Z,99566.45
2019-02-16T23:04:48.951Z,99575.55
2019-02-16T23:07:25.107Z,99577.51
2019-02-16T23:09:58.923Z,99584.83
2019-02-16T23:12:32.539Z,99588.11
2019-02-16T23:15:06.639Z,99591.06
2019-02-16T23:17:41.541Z,99592.62
2019-02-16T23:20:15.759Z,99596.64
2019-02-16T23:22:49.410Z,99607.38
2019-02-16T23:25:23.157Z,99606.63
2019-02-16T23:27:58.271Z,99603.92
2019-02-16T23:30:32.043Z,99606.58
2019-02-16T23:33:06.545Z,99594.54
2019-02-16T23:35:40.672Z,99600.92
2019-02-16T23:38:15.771Z,99604.06
2019-02-16T23:40:49.334Z,99602.73
2019-02-16T23:43:23.424Z,99606.41
2019-02-16T23:45:59.603Z,99612.09
2019-02-16T23:48:34.045Z,99610.73
2019-02-16T23:51:09.668Z,99625.71
2019-02-16T23:53:45.529Z,99617.16
2019-02-16T23:56:21.891Z,99623.41
2019-02-16T23:58:57.398Z,99620.30
